Time;durP1;ratioP1;P1;durP2;ratioP2;P2;SDS_P1;SDS_P2;PMS_P1;PMS_P2;Temp;Humidity;BMP_temperature;BMP_pressure;BME280_temperature;BME280_humidity;BME280_pressure;Samples;Min_cycle;Max_cycle;Signal;HPM_P1;HPM_P2
2023/12/25 00:01:52;;;;;;;3.85;0.80;;;;;;;10.33;91.69;99910.91;5044487;28;20048;-76
2023/12/25 00:04:55;;;;;;;2.72;0.95;;;;;;;10.34;91.09;99904.75;5059754;28;20528;-75
2023/12/25 00:07:59;;;;;;;5.28;1.08;;;;;;;10.34;91.04;99892.56;5068149;28;20093;-75
2023/12/25 00:11:02;;;;;;;7.32;1.08;;;;;;;10.36;91.24;99889.81;5051574;28;20102;-75
2023/12/25 00:14:06;;;;;;;7.80;1.00;;;;;;;10.35;91.30;99899.44;5051270;28;20043;-76
2023/12/25 00:17:09;;;;;;;;;;;;;;;10.34;90.87;99894.28;5051578;28;20067;-75
2023/12/25 00:20:12;;;;;;;4.60;1.00;;;;;;;10.33;91.26;99896.06;5068659;28;20421;-76
2023/12/25 00:23:15;;;;;;;3.13;1.00;;;;;;;10.36;90.57;99890.66;5069554;28;20056;-75
2023/12/25 00:26:19;;;;;;;4.20;0.65;;;;;;;10.37;90.58;99897.59;5067264;28;20039;-75
2023/12/25 00:29:22;;;;;;;4.30;1.10;;;;;;;10.35;90.97;99877.72;5067827;28;20067;-76
2023/12/25 00:32:25;;;;;;;;;;;;;;;10.36;90.98;99895.06;5070147;28;20062;-76
2023/12/25 00:35:28;;;;;;;6.00;1.48;;;;;;;10.34;90.34;99889.06;5069713;28;19919;-75
2023/12/25 00:38:32;;;;;;;;;;;;;;;10.32;91.14;99883.97;5069773;28;20442;-76
2023/12/25 00:41:35;;;;;;;4.75;0.80;;;;;;;10.32;90.68;99897.03;5069585;28;19920;-76
2023/12/25 00:44:38;;;;;;;;;;;;;;;10.33;90.94;99874.34;5069931;28;20411;-76
2023/12/25 00:47:41;;;;;;;4.88;0.63;;;;;;;10.34;90.81;99894.28;5068889;28;20018;-76
2023/12/25 00:50:44;;;;;;;;;;;;;;;10.34;90.50;99897.78;5067928;28;20619;-75
2023/12/25 00:53:47;;;;;;;3.95;1.02;;;;;;;10.36;90.39;99884.59;5058581;28;19957;-75
2023/12/25 00:56:51;;;;;;;;;;;;;;;10.37;90.62;99897.59;5064609;28;20039;-75
2023/12/25 00:59:54;;;;;;;5.33;0.90;;;;;;;10.36;90.23;99906.34;5065446;28;19923;-74
2023/12/25 01:02:57;;;;;;;4.70;0.77;;;;;;;10.37;90.48;99900.22;5061468;28;20631;-76
2023/12/25 01:06:01;;;;;;;2.67;0.65;;;;;;;10.36;90.71;99908.13;5039696;28;20089;-76
2023/12/25 01:09:04;;;;;;;2.95;0.73;;;;;;;10.33;90.86;99916.97;5068113;28;20046;-76
2023/12/25 01:12:09;;;;;;;;;;;;;;;10.36;91.04;99908.94;5066965;28;20174;-74
2023/12/25 01:15:12;;;;;;;5.43;1.00;;;;;;;10.37;90.90;99912.41;5069473;28;19935;-74
2023/12/25 01:18:16;;;;;;;4.53;0.85;;;;;;;10.37;90.61;99934.19;5040699;28;20040;-73
2023/12/25 01:21:19;;;;;;;5.32;0.80;;;;;;;10.36;90.98;99916.78;5037932;28;20051;-73
2023/12/25 01:24:23;;;;;;;;;;;;;;;10.36;90.66;99916.78;5062923;28;20075;-74
2023/12/25 01:27:25;;;;;;;2.78;0.90;;;;;;;10.38;90.79;99914.09;5062157;28;19920;-74
2023/12/25 01:30:29;;;;;;;;;;;;;;;10.38;90.77;99904.50;5058276;28;20040;-74
2023/12/25 01:33:32;;;;;;;3.30;0.60;;;;;;;10.38;90.93;99906.25;5065465;28;19978;-74
2023/12/25 01:36:35;;;;;;;6.63;1.02;;;;;;;10.38;90.97;99908.88;5068935;28;20518;-74
2023/12/25 01:39:39;;;;;;;2.65;0.70;;;;;;;10.36;90.99;99915.97;5047044;28;20036;-73
2023/12/25 01:42:42;;;;;;;;;;;;;;;10.37;91.06;99913.28;5055441;28;20044;-74
2023/12/25 01:45:45;;;;;;;3.30;0.73;;;;;;;10.37;91.38;99921.09;5072524;28;20435;-74
2023/12/25 01:48:50;;;;;;;;;;;;;;;10.36;91.60;99905.50;5047059;28;20459;-74
2023/12/25 01:51:54;;;;;;;6.88;0.68;;;;;;;10.37;91.20;99913.28;5065383;28;19919;-73
2023/12/25 01:54:59;;;;;;;2.70;0.60;;;;;;;10.37;91.45;99907.19;5060668;28;20401;-73
2023/12/25 01:58:03;;;;;;;3.58;0.68;;;;;;;10.40;91.19;99927.91;5050202;28;20105;-74
2023/12/25 02:01:07;;;;;;;4.15;0.88;;;;;;;10.38;91.31;99909.72;5053952;28;20140;-73
2023/12/25 02:04:10;;;;;;;5.97;0.60;;;;;;;10.40;91.00;99920.94;5060689;28;20545;-74
2023/12/25 02:07:14;;;;;;;;;;;;;;;10.39;90.78;99911.38;5062915;28;20546;-73
2023/12/25 02:10:24;;;;;;;;;;;;;;;10.40;90.58;99928.75;5063369;28;19935;-74
2023/12/25 02:13:27;;;;;;;3.55;0.60;;;;;;;10.42;90.64;99908.59;5070470;28;19927;-73
2023/12/25 02:16:32;;;;;;;7.70;2.47;;;;;;;10.41;90.88;99916.53;5062064;28;20562;-74
2023/12/25 02:19:40;;;;;;;2.80;0.60;;;;;;;10.41;91.00;99913.91;5065286;28;20137;-73
2023/12/25 02:22:43;;;;;;;2.92;0.65;;;;;;;10.42;90.85;99932.09;5067706;28;20051;-73
2023/12/25 02:25:54;;;;;;;;;;;;;;;10.44;90.39;99927.63;5068797;28;20466;-73
2023/12/25 02:28:57;;;;;;;2.20;0.50;;;;;;;10.44;90.23;99951.16;5068612;28;20280;-73
2023/12/25 02:32:00;;;;;;;4.45;0.63;;;;;;;10.45;90.60;99945.00;5069309;28;20046;-73
2023/12/25 02:35:03;;;;;;;;;;;;;;;10.45;90.41;99941.53;5067389;28;20086;-74
2023/12/25 02:38:07;;;;;;;3.95;0.40;;;;;;;10.44;90.60;99945.94;5062372;28;19970;-74
2023/12/25 02:41:10;;;;;;;5.15;0.65;;;;;;;10.45;90.42;99947.59;5063757;28;20099;-74
2023/12/25 02:44:14;;;;;;;2.60;0.35;;;;;;;10.46;90.23;99967.59;5064145;28;20051;-73
2023/12/25 02:47:17;;;;;;;2.33;0.45;;;;;;;10.45;90.34;99945.00;5067865;28;20055;-74
2023/12/25 02:50:20;;;;;;;;;;;;;;;10.45;90.27;99947.59;5065207;28;20066;-74
2023/12/25 02:53:23;;;;;;;1.25;0.28;;;;;;;10.46;90.40;99949.31;5066705;28;19922;-74
2023/12/25 02:56:26;;;;;;;;;;;;;;;10.47;90.14;99945.75;5072319;28;20174;-73
2023/12/25 02:59:29;;;;;;;3.03;0.57;;;;;;;10.50;90.21;99933.41;5061482;28;19924;-74
2023/12/25 03:02:33;;;;;;;1.65;0.40;;;;;;;10.47;90.54;99937.91;5069178;28;20066;-75
2023/12/25 03:05:36;;;;;;;;;;;;;;;10.46;90.42;99943.22;5065978;28;20044;-74
2023/12/25 03:08:39;;;;;;;2.83;0.30;;;;;;;10.46;90.46;99974.56;5064553;28;19927;-75
2023/12/25 03:11:43;;;;;;;1.45;0.30;;;;;;;10.46;90.62;99967.59;5065265;28;20039;-75
2023/12/25 03:14:47;;;;;;;3.25;0.43;;;;;;;10.47;90.58;99934.44;5058500;28;20495;-74
2023/12/25 03:17:50;;;;;;;1.42;0.40;;;;;;;10.46;90.74;99970.22;5058864;28;20098;-75
2023/12/25 03:20:54;;;;;;;;;;;;;;;10.47;90.68;99919.59;5039710;28;20095;-74
2023/12/25 03:23:57;;;;;;;0.80;0.20;;;;;;;10.47;90.60;99937.91;5063173;28;19920;-74
2023/12/25 03:27:00;;;;;;;2.53;1.23;;;;;;;10.46;90.90;99936.22;5054586;28;20530;-74
2023/12/25 03:30:04;;;;;;;3.13;0.30;;;;;;;10.47;90.85;99945.75;5055846;28;20055;-74
2023/12/25 03:33:07;;;;;;;1.30;0.20;;;;;;;10.47;91.00;99940.53;5060567;28;20515;-74
2023/12/25 03:36:11;;;;;;;1.58;0.20;;;;;;;10.46;90.91;99931.00;5070718;28;20044;-74
2023/12/25 03:39:14;;;;;;;2.75;0.20;;;;;;;10.48;90.59;99933.50;5053324;28;20538;-75
2023/12/25 03:42:18;;;;;;;;;;;;;;;10.49;90.93;99922.13;5070561;28;20054;-75
2023/12/25 03:45:21;;;;;;;1.20;0.30;;;;;;;10.48;91.02;99921.28;5072959;28;19935;-75
2023/12/25 03:48:24;;;;;;;1.08;0.30;;;;;;;10.50;91.10;99902.03;5067994;28;20040;-75
2023/12/25 03:51:27;;;;;;;4.22;0.73;;;;;;;10.51;91.01;99922.88;5064330;28;20170;-74
2023/12/25 03:54:32;;;;;;;1.98;0.40;;;;;;;10.50;91.16;99917.72;5065985;28;20577;-74
2023/12/25 03:57:36;;;;;;;0.73;0.20;;;;;;;10.48;91.49;99929.13;5066358;28;20470;-75
2023/12/25 04:00:40;;;;;;;2.28;0.30;;;;;;;10.53;90.94;99922.75;5062096;28;20040;-75
2023/12/25 04:03:43;;;;;;;;;;;;;;;10.53;91.11;99928.00;5062515;28;20070;-75
2023/12/25 04:06:46;;;;;;;1.67;0.28;;;;;;;10.51;91.41;99915.03;5073446;28;19927;-75
2023/12/25 04:09:49;;;;;;;;;;;;;;;10.53;91.48;99922.75;5062574;28;20040;-75
2023/12/25 04:12:53;;;;;;;2.33;0.47;;;;;;;10.53;91.47;99917.53;5045330;28;19923;-75
2023/12/25 04:15:56;;;;;;;1.30;0.40;;;;;;;10.54;91.40;99922.69;5068889;28;20094;-74
2023/12/25 04:18:59;;;;;;;0.85;0.22;;;;;;;10.52;91.74;99924.53;5055730;28;20052;-75
2023/12/25 04:22:04;;;;;;;2.15;0.45;;;;;;;10.53;91.56;99933.22;5057822;28;20105;-75
2023/12/25 04:25:08;;;;;;;3.05;0.57;;;;;;;10.53;91.80;99917.53;5063754;28;20512;-74
2023/12/25 04:28:15;;;;;;;1.30;0.30;;;;;;;10.54;91.75;99929.69;5061360;28;20031;-74
2023/12/25 04:31:19;;;;;;;1.70;0.40;;;;;;;10.56;91.60;99940.88;5062193;28;20055;-74
2023/12/25 04:34:22;;;;;;;2.17;0.35;;;;;;;10.54;91.73;99934.91;5063494;28;20047;-74
2023/12/25 04:37:25;;;;;;;2.92;0.40;;;;;;;10.55;92.05;99944.44;5061204;28;20067;-74
2023/12/25 04:40:31;;;;;;;;;;;;;;;10.55;92.07;99958.34;5069388;28;20035;-74
2023/12/25 04:43:34;;;;;;;1.48;0.40;;;;;;;10.53;92.10;99948.91;5046723;28;19921;-74
2023/12/25 04:46:39;;;;;;;;;;;;;;;10.52;92.57;99942.84;5059571;28;20086;-74
2023/12/25 04:49:43;;;;;;;1.35;0.20;;;;;;;10.53;92.50;99938.44;5062980;28;19970;-74
2023/12/25 04:52:47;;;;;;;3.17;0.28;;;;;;;10.56;92.60;99946.97;5061586;28;20626;-74
2023/12/25 04:55:52;;;;;;;1.67;0.20;;;;;;;10.55;92.50;99937.41;5064797;28;20035;-74
2023/12/25 04:58:55;;;;;;;1.40;0.20;;;;;;;10.56;92.48;99930.41;5058684;28;20507;-74
2023/12/25 05:02:00;;;;;;;1.70;0.50;;;;;;;10.56;92.64;99943.47;5064867;28;20076;-73
2023/12/25 05:05:03;;;;;;;1.55;0.20;;;;;;;10.55;92.78;99942.66;5063356;28;20067;-74
2023/12/25 05:08:07;;;;;;;2.20;0.95;;;;;;;10.53;92.84;99960.22;5063896;28;20088;-75
2023/12/25 05:11:11;;;;;;;;;;;;;;;10.57;92.64;99968.72;5069429;28;20095;-74
2023/12/25 05:14:14;;;;;;;3.55;0.20;;;;;;;10.56;92.88;99951.31;5055103;28;19946;-74
2023/12/25 05:17:17;;;;;;;;;;;;;;;10.56;93.15;99959.16;5060095;28;20483;-73
2023/12/25 05:20:20;;;;;;;0.93;0.10;;;;;;;10.55;93.08;99968.78;5059780;28;20334;-74
2023/12/25 05:23:23;;;;;;;;;;;;;;;10.58;92.78;99963.38;5062501;28;20117;-74
2023/12/25 05:26:27;;;;;;;0.98;0.20;;;;;;;10.56;93.55;99969.63;5062612;28;20053;-74
2023/12/25 05:29:30;;;;;;;0.55;0.20;;;;;;;10.56;93.99;99954.81;5062839;28;20454;-74
2023/12/25 05:32:35;;;;;;;1.33;0.20;;;;;;;10.53;94.44;99960.22;5072401;28;20514;-74
2023/12/25 05:35:38;;;;;;;2.38;0.30;;;;;;;10.50;96.11;99956.94;5045708;28;20094;-74
2023/12/25 05:38:42;;;;;;;0.68;0.20;;;;;;;10.44;97.55;99963.41;5058785;28;20043;-74
2023/12/25 05:41:45;;;;;;;1.02;0.10;;;;;;;10.36;98.71;99978.69;5064211;28;20044;-74
2023/12/25 05:44:48;;;;;;;2.15;0.20;;;;;;;10.31;100.00;99976.34;5066000;28;20400;-74
2023/12/25 05:47:52;;;;;;;1.05;0.10;;;;;;;10.26;100.00;99970.56;5061563;28;20070;-73
2023/12/25 05:50:55;;;;;;;;;;;;;;;10.23;100.00;99973.31;5064374;28;20464;-74
2023/12/25 05:53:58;;;;;;;1.20;0.20;;;;;;;10.27;100.00;99987.91;5071376;28;19999;-74
2023/12/25 05:57:02;;;;;;;1.08;0.20;;;;;;;10.21;100.00;99976.03;5054646;28;20039;-74
2023/12/25 06:00:06;;;;;;;1.52;0.30;;;;;;;10.19;100.00;99977.88;5048658;28;20056;-74
2023/12/25 06:03:16;;;;;;;0.57;0.10;;;;;;;10.16;100.00;99987.69;5069898;28;20043;-74
2023/12/25 06:06:19;;;;;;;;;;;;;;;10.15;100.00;99991.22;5063796;28;20116;-74
2023/12/25 06:09:23;;;;;;;0.97;0.20;;;;;;;10.13;100.00;100000.91;5060116;28;20391;-75
2023/12/25 06:12:26;;;;;;;0.57;0.10;;;;;;;10.12;100.00;99992.25;5071658;28;20044;-74
2023/12/25 06:15:29;;;;;;;;;;;;;;;10.12;100.00;99997.47;5063675;28;20634;-75
2023/12/25 06:18:32;;;;;;;2.10;0.30;;;;;;;10.09;100.00;100008.09;5062856;28;20279;-75
2023/12/25 06:21:35;;;;;;;1.58;0.30;;;;;;;10.13;100.00;99982.63;5061973;28;20518;-74
2023/12/25 06:24:39;;;;;;;1.48;0.10;;;;;;;10.16;100.00;99998.13;5069749;28;20127;-74
2023/12/25 06:27:42;;;;;;;0.20;0.00;;;;;;;10.14;100.00;99994.75;5059248;28;20047;-74
2023/12/25 06:30:45;;;;;;;;;;;;;;;10.15;100.00;99994.69;5065496;28;20090;-75
2023/12/25 06:33:48;;;;;;;1.13;0.22;;;;;;;10.15;100.00;99988.63;5063252;28;19958;-74
2023/12/25 06:36:52;;;;;;;1.42;0.30;;;;;;;10.14;100.00;99995.59;5064195;28;20035;-74
2023/12/25 06:39:55;;;;;;;;;;;;;;;10.14;100.00;99990.38;5062508;28;20124;-74
2023/12/25 06:42:58;;;;;;;0.60;0.10;;;;;;;10.13;100.00;99993.09;5064840;28;19966;-74
2023/12/25 06:46:02;;;;;;;1.05;0.20;;;;;;;10.17;100.00;99994.56;5070494;28;20125;-74
2023/12/25 06:49:05;;;;;;;0.57;0.10;;;;;;;10.15;100.00;99986.84;5059705;28;20079;-74
2023/12/25 06:52:09;;;;;;;3.05;1.10;;;;;;;10.18;100.00;99991.06;5061815;28;20151;-75
2023/12/25 06:55:12;;;;;;;0.93;0.30;;;;;;;10.19;100.00;100005.78;5062846;28;20047;-75
2023/12/25 06:58:16;;;;;;;1.17;0.28;;;;;;;10.15;100.00;100006.91;5066596;28;20055;-74
2023/12/25 07:01:23;;;;;;;1.10;0.10;;;;;;;10.14;100.00;99999.97;5060573;28;20170;-75
2023/12/25 07:04:26;;;;;;;1.77;0.20;;;;;;;10.13;100.00;99998.31;5068079;28;20060;-75
2023/12/25 07:07:29;;;;;;;;;;;;;;;10.15;100.00;100006.91;5063186;28;20090;-75
2023/12/25 07:10:33;;;;;;;2.83;0.68;;;;;;;10.16;100.00;99998.13;5064470;28;20450;-75
2023/12/25 07:13:37;;;;;;;0.38;0.10;;;;;;;10.16;100.00;100001.56;5055407;28;20083;-75
2023/12/25 07:16:40;;;;;;;0.80;0.10;;;;;;;10.18;100.00;100006.72;5066042;28;20102;-75
2023/12/25 07:19:44;;;;;;;0.65;0.10;;;;;;;10.13;100.00;100021.81;5063616;28;20510;-74
2023/12/25 07:22:47;;;;;;;;;;;;;;;10.10;100.00;100022.84;5065651;28;20094;-75
2023/12/25 07:25:50;;;;;;;1.13;0.30;;;;;;;10.15;100.00;100004.28;5059909;28;19920;-75
2023/12/25 07:28:53;;;;;;;1.27;0.40;;;;;;;10.14;100.00;100015.66;5066102;28;20148;-75
2023/12/25 07:31:57;;;;;;;1.90;0.20;;;;;;;10.16;100.00;100016.41;5075279;28;20487;-76
2023/12/25 07:35:02;;;;;;;0.95;0.20;;;;;;;10.18;100.00;100011.97;5065009;28;20174;-75
2023/12/25 07:38:05;;;;;;;1.40;0.40;;;;;;;10.20;100.00;100012.69;5064965;28;20399;-75
2023/12/25 07:41:09;;;;;;;0.88;0.30;;;;;;;10.15;100.00;100017.34;5061548;28;20122;-75
2023/12/25 07:44:12;;;;;;;;;;;;;;;10.18;100.00;100022.41;5063131;28;20408;-75
2023/12/25 07:47:16;;;;;;;2.90;1.20;;;;;;;10.24;100.00;100007.22;5049563;28;19934;-76
2023/12/25 07:50:20;;;;;;;1.52;0.20;;;;;;;10.24;100.00;100009.81;5069829;28;20047;-75
2023/12/25 07:53:23;;;;;;;0.25;0.10;;;;;;;10.23;100.00;100021.19;5063334;28;20085;-75
2023/12/25 07:56:27;;;;;;;1.08;0.20;;;;;;;10.27;100.00;100037.56;5062757;28;20051;-75
2023/12/25 07:59:30;;;;;;;0.52;0.17;;;;;;;10.27;100.00;100039.31;5059754;28;20036;-75
2023/12/25 08:02:34;;;;;;;0.88;0.30;;;;;;;10.26;100.00;100035.88;5062599;28;20047;-76
2023/12/25 08:05:38;;;;;;;;;;;;;;;10.23;100.00;100036.03;5062852;28;20522;-76
2023/12/25 08:08:41;;;;;;;;;;;;;;;10.23;100.00;100030.78;5053753;28;20387;-76
2023/12/25 08:11:45;;;;;;;1.52;0.60;;;;;;;10.25;100.00;100039.41;5063385;28;19969;-75
2023/12/25 08:14:50;;;;;;;2.72;1.10;;;;;;;10.26;100.00;100035.88;5060968;28;20047;-76
2023/12/25 08:17:54;;;;;;;0.40;0.10;;;;;;;10.27;100.00;100037.56;5065517;28;20122;-76
2023/12/25 08:20:58;;;;;;;1.73;0.20;;;;;;;10.25;99.99;100037.63;5063053;28;20040;-75
2023/12/25 08:24:02;;;;;;;2.30;0.70;;;;;;;10.31;99.94;100048.69;5057722;28;20102;-76
2023/12/25 08:27:05;;;;;;;0.85;0.45;;;;;;;10.29;99.87;100038.31;5059710;28;20047;-76
2023/12/25 08:30:09;;;;;;;;;;;;;;;10.31;100.00;100049.53;5062479;28;20039;-76
2023/12/25 08:33:12;;;;;;;1.45;0.45;;;;;;;10.34;100.00;100038.03;5064159;28;19918;-75
2023/12/25 08:36:15;;;;;;;;;;;;;;;10.51;100.00;100030.03;5062611;28;20035;-77
2023/12/25 08:39:19;;;;;;;2.53;0.30;;;;;;;10.77;95.81;100043.31;5063597;28;19924;-74
2023/12/25 08:42:22;;;;;;;0.65;0.20;;;;;;;10.78;96.07;100031.91;5058481;28;20754;-77
2023/12/25 08:45:26;;;;;;;0.30;0.10;;;;;;;10.74;95.71;100036.50;5055325;28;20090;-74
2023/12/25 08:48:30;;;;;;;0.73;0.10;;;;;;;10.77;95.61;100041.53;5054723;28;20040;-71
2023/12/25 08:51:38;;;;;;;1.00;0.30;;;;;;;10.77;95.01;100049.38;5057333;28;20051;-70
2023/12/25 08:54:41;;;;;;;0.50;0.20;;;;;;;10.74;95.90;100031.25;5051113;28;20060;-70
2023/12/25 08:57:44;;;;;;;0.82;0.20;;;;;;;10.70;95.72;100046.31;5043465;28;20088;-71
2023/12/25 09:00:48;;;;;;;0.63;0.10;;;;;;;10.71;94.52;100060.22;5041640;28;20600;-71
2023/12/25 09:03:51;;;;;;;1.13;0.20;;;;;;;10.76;94.98;100060.78;5042274;28;20102;-69
2023/12/25 09:06:54;;;;;;;;;;;;;;;10.79;95.03;100049.31;5040533;28;20095;-71
2023/12/25 09:09:58;;;;;;;2.53;0.40;;;;;;;10.83;94.99;100056.03;5041644;28;20289;-71
2023/12/25 09:13:01;;;;;;;1.25;0.35;;;;;;;10.80;94.43;100051.81;5046094;28;20133;-70
2023/12/25 09:16:04;;;;;;;1.05;0.35;;;;;;;10.85;94.12;100062.84;5049473;28;20159;-70
2023/12/25 09:19:08;;;;;;;1.92;0.80;;;;;;;10.89;93.85;100066.13;5032787;28;20056;-71
2023/12/25 09:22:12;;;;;;;;;;;;;;;10.88;94.09;100067.03;5033867;28;20099;-71
2023/12/25 09:25:15;;;;;;;2.90;0.82;;;;;;;10.94;92.98;100059.69;5039809;28;19919;-73
2023/12/25 09:28:19;;;;;;;2.15;0.70;;;;;;;10.89;93.37;100064.34;5036387;28;20031;-71
2023/12/25 09:31:22;;;;;;;3.30;0.60;;;;;;;11.16;94.04;100076.66;5044326;28;20040;-74
2023/12/25 09:34:26;;;;;;;0.82;0.20;;;;;;;11.33;91.29;100075.63;5041138;28;20079;-72
2023/12/25 09:37:29;;;;;;;10.10;2.30;;;;;;;11.36;90.18;100078.06;5037687;28;20050;-71
2023/12/25 09:40:33;;;;;;;8.90;1.15;;;;;;;11.38;88.99;100087.47;5032443;28;20083;-71
2023/12/25 09:43:43;;;;;;;0.70;0.10;;;;;;;11.54;89.47;100079.47;5032461;28;20090;-72
2023/12/25 09:46:47;;;;;;;1.00;0.20;;;;;;;11.56;88.42;100093.34;5031982;28;20409;-76
2023/12/25 09:49:51;;;;;;;1.08;0.17;;;;;;;11.63;88.68;100102.47;5029493;28;20076;-74
2023/12/25 09:52:55;;;;;;;1.20;0.10;;;;;;;11.60;87.80;100088.75;5028983;28;20040;-71
2023/12/25 09:56:01;;;;;;;0.45;0.10;;;;;;;11.71;87.80;100081.06;5046995;28;20056;-71
2023/12/25 09:59:06;;;;;;;0.98;0.30;;;;;;;11.74;88.05;100086.09;5051305;28;20107;-71
2023/12/25 10:02:13;;;;;;;0.75;0.20;;;;;;;11.70;87.14;100094.22;5034288;28;20060;-71
2023/12/25 10:05:18;;;;;;;0.25;0.00;;;;;;;11.68;87.31;100091.72;5031897;28;20095;-72
2023/12/25 10:08:22;;;;;;;1.08;0.20;;;;;;;11.70;87.48;100095.06;5032203;28;20035;-71
2023/12/25 10:11:25;;;;;;;;;;;;;;;11.62;87.08;100092.13;5033896;28;20044;-71
2023/12/25 10:14:29;;;;;;;0.40;0.10;;;;;;;11.69;87.57;100088.16;5051787;28;20374;-72
2023/12/25 10:17:32;;;;;;;0.50;0.10;;;;;;;11.63;86.49;100093.78;5051713;28;20048;-73
2023/12/25 10:20:36;;;;;;;0.50;0.10;;;;;;;11.71;87.21;100081.06;5051993;28;20052;-71
2023/12/25 10:23:39;;;;;;;0.90;0.20;;;;;;;11.61;87.70;100082.56;5051089;28;20129;-71
2023/12/25 10:26:45;;;;;;;;;;;;;;;11.68;86.96;100070.78;5052288;28;20040;-70
2023/12/25 10:29:49;;;;;;;0.30;0.10;;;;;;;11.76;86.40;100068.47;5039497;28;19966;-72
2023/12/25 10:33:10;;;;;;;1.25;0.17;;;;;;;11.84;85.95;100068.88;5049110;28;20044;-72
2023/12/25 10:36:13;;;;;;;0.93;0.28;;;;;;;11.86;86.11;100069.59;5034150;28;20060;-72
2023/12/25 10:39:30;;;;;;;0.75;0.10;;;;;;;11.89;84.94;100062.50;5053069;28;20072;-71
2023/12/25 10:42:34;;;;;;;0.70;0.10;;;;;;;11.88;84.74;100060.81;5054295;28;20408;-71
2023/12/25 10:45:38;;;;;;;1.98;0.20;;;;;;;11.94;84.37;100063.88;5044901;28;20114;-73
2023/12/25 10:48:45;;;;;;;0.20;0.00;;;;;;;11.92;83.89;100078.00;5045402;28;20056;-75
2023/12/25 10:51:51;;;;;;;3.75;0.40;;;;;;;11.94;83.88;100082.22;5054814;28;20071;-73
2023/12/25 10:54:56;;;;;;;0.45;0.05;;;;;;;11.72;84.52;100067.00;5066599;28;20479;-71
2023/12/25 10:57:59;;;;;;;0.40;0.00;;;;;;;11.73;84.75;100057.38;5063232;28;20064;-72
2023/12/25 11:01:05;;;;;;;0.40;0.10;;;;;;;11.73;85.05;100055.59;5064091;28;20054;-71
2023/12/25 11:04:08;;;;;;;0.70;0.10;;;;;;;11.74;85.12;100048.56;5065855;28;20056;-73
2023/12/25 11:07:13;;;;;;;0.40;0.10;;;;;;;11.66;85.04;100051.69;5065603;28;20055;-72
2023/12/25 11:10:17;;;;;;;0.20;0.05;;;;;;;11.67;84.83;100045.50;5059688;28;20407;-72
2023/12/25 11:13:20;;;;;;;2.85;0.80;;;;;;;11.66;84.65;100056.94;5064201;28;20043;-71
2023/12/25 11:16:23;;;;;;;;;;;;;;;11.69;85.03;100055.91;5063917;28;20530;-72
2023/12/25 11:19:27;;;;;;;0.47;0.10;;;;;;;11.63;84.98;100083.31;5058886;28;20272;-71
2023/12/25 11:22:33;;;;;;;0.30;0.10;;;;;;;11.57;85.21;100052.28;5054581;28;20047;-71
2023/12/25 11:25:36;;;;;;;0.30;0.10;;;;;;;11.69;85.48;100059.34;5054623;28;20044;-70
2023/12/25 11:28:55;;;;;;;0.32;0.10;;;;;;;11.68;84.86;100052.44;5053874;28;20040;-81
2023/12/25 11:32:07;;;;;;;0.85;0.32;;;;;;;11.80;84.40;100059.47;5053886;28;20052;-69
2023/12/25 11:35:10;;;;;;;0.35;0.10;;;;;;;11.77;83.99;100067.56;5054653;28;20095;-69
2023/12/25 11:38:18;;;;;;;1.73;0.30;;;;;;;11.78;84.12;100053.53;5054735;28;20075;-69
2023/12/25 11:41:22;;;;;;;0.95;0.30;;;;;;;11.72;84.28;100064.38;5053300;28;20055;-68
2023/12/25 11:44:31;;;;;;;0.60;0.20;;;;;;;11.74;84.69;100044.19;5054882;28;20404;-67
2023/12/25 11:47:45;;;;;;;1.13;0.45;;;;;;;11.69;84.90;100045.41;5053731;28;20056;-69
2023/12/25 11:50:58;;;;;;;1.05;0.40;;;;;;;11.73;84.91;100036.41;5054093;28;20492;-68
2023/12/25 11:54:03;;;;;;;;;;;;;;;11.72;84.64;100046.06;5054641;28;20558;-67
2023/12/25 11:57:17;;;;;;;0.17;0.00;;;;;;;11.76;85.01;100046.69;5053741;28;19958;-68
2023/12/25 12:00:22;;;;;;;0.77;0.20;;;;;;;11.70;85.08;100026.97;5054001;28;20063;-68
2023/12/25 12:03:25;;;;;;;0.50;0.20;;;;;;;11.69;84.92;100035.78;5053153;28;20064;-71
2023/12/25 12:06:28;;;;;;;0.63;0.20;;;;;;;11.74;84.79;100038.09;5053922;28;20398;-68
2023/12/25 12:09:31;;;;;;;;;;;;;;;11.72;84.91;100051.28;5054188;28;20036;-68
2023/12/25 12:12:36;;;;;;;2.13;0.20;;;;;;;11.78;84.65;100037.81;5053313;28;19936;-68
2023/12/25 12:15:40;;;;;;;1.15;0.60;;;;;;;11.81;84.74;100042.84;5053582;28;20060;-67
2023/12/25 12:18:43;;;;;;;1.10;0.32;;;;;;;11.88;84.48;100038.06;5053149;28;20439;-70
2023/12/25 12:21:47;;;;;;;0.70;0.28;;;;;;;11.89;84.37;100031.06;5053164;28;20047;-69
2023/12/25 12:24:51;;;;;;;1.77;0.68;;;;;;;11.91;84.41;100042.28;5053237;28;20047;-68
2023/12/25 12:27:58;;;;;;;1.48;0.43;;;;;;;11.98;83.64;100047.00;5053805;28;20521;-68
2023/12/25 12:31:05;;;;;;;1.05;0.50;;;;;;;11.97;84.11;100044.50;5052901;28;20079;-68
2023/12/25 12:34:08;;;;;;;0.40;0.10;;;;;;;12.00;83.88;100033.81;5053964;28;20142;-68
2023/12/25 12:37:13;;;;;;;;;;;;;;;11.98;83.41;100046.16;5054079;28;20546;-69
2023/12/25 12:40:16;;;;;;;1.00;0.20;;;;;;;11.99;83.63;100032.13;5053533;28;19924;-71
2023/12/25 12:43:20;;;;;;;0.98;0.17;;;;;;;11.97;83.48;100044.50;5053384;28;20044;-68
2023/12/25 12:46:24;;;;;;;9.18;8.23;;;;;;;11.86;84.41;100032.91;5053595;28;20094;-72
2023/12/25 12:49:28;;;;;;;8.95;5.50;;;;;;;11.85;84.43;100041.72;5052515;28;20531;-70
2023/12/25 12:52:33;;;;;;;2.05;0.20;;;;;;;11.88;84.10;100039.84;5053312;28;20132;-69
2023/12/25 12:55:36;;;;;;;;;;;;;;;11.82;84.38;100041.91;5053057;28;20070;-71
2023/12/25 12:58:40;;;;;;;0.80;0.10;;;;;;;11.93;84.29;100051.69;5052124;28;19927;-70
2023/12/25 13:01:44;;;;;;;0.93;0.20;;;;;;;11.90;83.96;100038.81;5053416;28;20124;-73
2023/12/25 13:04:47;;;;;;;1.25;0.45;;;;;;;11.97;84.25;100047.13;5052939;28;20523;-71
2023/12/25 13:07:51;;;;;;;0.50;0.10;;;;;;;11.96;83.95;100048.88;5052294;28;20052;-70
2023/12/25 13:11:00;;;;;;;1.83;0.50;;;;;;;11.96;83.95;100040.19;5070367;28;20042;-71
2023/12/25 13:14:03;;;;;;;2.00;0.43;;;;;;;11.98;83.66;100056.66;5071860;28;20047;-69
2023/12/25 13:17:08;;;;;;;2.55;0.80;;;;;;;12.01;83.57;100056.44;5071783;28;20105;-70
2023/12/25 13:20:11;;;;;;;;;;;;;;;11.98;83.76;100051.41;5072305;28;20122;-78
2023/12/25 13:23:14;;;;;;;2.33;0.90;;;;;;;12.01;83.54;100051.22;5072348;28;20378;-72
2023/12/25 13:26:18;;;;;;;5.63;2.85;;;;;;;12.03;84.03;100057.19;5071435;28;20055;-73
2023/12/25 13:29:22;;;;;;;3.13;0.95;;;;;;;11.98;83.43;100052.25;5071478;28;20035;-72
2023/12/25 13:32:25;;;;;;;1.58;0.43;;;;;;;12.06;83.33;100043.88;5070731;28;20546;-71
2023/12/25 13:35:28;;;;;;;2.10;0.60;;;;;;;12.10;82.92;100048.00;5069994;28;20052;-71
2023/12/25 13:38:31;;;;;;;1.10;0.50;;;;;;;12.12;82.65;100050.50;5070882;28;20527;-69
2023/12/25 13:41:36;;;;;;;0.43;0.20;;;;;;;12.13;82.58;100053.03;5071542;28;20055;-69
2023/12/25 13:44:39;;;;;;;0.90;0.10;;;;;;;12.04;82.87;100046.59;5071587;28;20083;-71
2023/12/25 13:47:43;;;;;;;0.60;0.20;;;;;;;12.05;82.97;100050.91;5071778;28;20052;-70
2023/12/25 13:50:47;;;;;;;1.40;0.40;;;;;;;12.06;83.12;100055.22;5072116;28;20052;-73
2023/12/25 13:53:52;;;;;;;1.50;0.25;;;;;;;12.02;83.10;100043.22;5072142;28;20067;-73
2023/12/25 13:57:02;;;;;;;0.88;0.20;;;;;;;12.05;83.01;100039.56;5071742;28;20051;-73
2023/12/25 14:00:08;;;;;;;0.60;0.20;;;;;;;12.06;82.97;100043.88;5072056;28;20047;-76
2023/12/25 14:03:13;;;;;;;60.53;54.97;;;;;;;12.13;83.72;100047.78;5072104;28;20105;-71
2023/12/25 14:06:16;;;;;;;12.48;11.27;;;;;;;12.17;82.56;100051.03;5071816;28;20047;-71
2023/12/25 14:09:19;;;;;;;1.30;0.30;;;;;;;12.14;82.70;100061.72;5037414;28;20569;-70
2023/12/25 14:12:23;;;;;;;0.68;0.20;;;;;;;12.13;82.96;100050.41;5041883;28;20075;-69
2023/12/25 14:15:27;;;;;;;0.70;0.10;;;;;;;12.14;82.63;100052.06;5039618;28;20430;-72
2023/12/25 14:18:31;;;;;;;2.25;0.70;;;;;;;12.21;82.73;100063.00;5031879;28;20496;-70
2023/12/25 14:21:35;;;;;;;0.95;0.30;;;;;;;12.15;82.81;100073.88;5031759;28;20516;-68
2023/12/25 14:24:39;;;;;;;1.98;0.60;;;;;;;12.07;82.81;100066.53;5031730;28;20048;-69
2023/12/25 14:27:42;;;;;;;2.03;0.63;;;;;;;11.98;83.23;100056.66;5031919;28;20080;-70
2023/12/25 14:30:46;;;;;;;1.50;0.40;;;;;;;11.96;83.98;100069.84;5031633;28;20040;-79
2023/12/25 14:33:49;;;;;;;;;;;;;;;11.93;83.84;100054.31;5032499;28;20488;-80